createdAt,value
2022-11-24T00:01:58.533Z,99661.88
2022-11-24T00:07:57.592Z,99660.90
2022-11-24T00:14:38.422Z,99647.29
2022-11-24T00:17:29.163Z,99650.05
2022-11-24T00:20:15.427Z,99652.59
2022-11-24T00:22:47.086Z,99652.27
2022-11-24T00:25:20.689Z,99649.66
2022-11-24T00:27:58.057Z,99649.70
2022-11-24T00:30:34.627Z,99648.95
2022-11-24T00:33:08.384Z,99649.04
2022-11-24T00:36:00.935Z,99645.36
2022-11-24T00:38:34.643Z,99645.71
2022-11-24T00:41:08.570Z,99645.28
2022-11-24T00:43:42.205Z,99653.36
2022-11-24T00:46:19.319Z,99656.55
2022-11-24T00:49:05.307Z,99655.46
2022-11-24T00:51:41.688Z,99651.91
2022-11-24T00:54:16.029Z,99652.72
2022-11-24T00:57:02.444Z,99661.58
2022-11-24T00:59:49.717Z,99654.08
2022-11-24T01:02:22.416Z,99654.14
2022-11-24T01:04:56.269Z,99656.23
2022-11-24T01:07:29.116Z,99652.74
2022-11-24T01:10:09.175Z,99648.52
2022-11-24T01:12:41.704Z,99646.27
2022-11-24T01:15:13.287Z,99639.54
2022-11-24T01:17:44.973Z,99644.09
2022-11-24T01:20:32.577Z,99646.51
2022-11-24T01:23:08.892Z,99649.02
2022-11-24T01:25:40.771Z,99653.27
2022-11-24T01:28:14.596Z,99653.12
2022-11-24T01:31:08.322Z,99652.06
2022-11-24T01:33:54.249Z,99652.61
2022-11-24T01:36:32.468Z,99653.29
2022-11-24T01:39:18.383Z,99652.45
2022-11-24T01:41:52.554Z,99655.41
2022-11-24T01:44:30.837Z,99654.93
2022-11-24T01:47:34.481Z,99658.00
2022-11-24T01:50:21.294Z,99666.14
2022-11-24T01:56:21.426Z,99664.02
2022-11-24T01:59:04.252Z,99651.60
2022-11-24T02:01:41.835Z,99648.73
2022-11-24T02:04:23.924Z,99650.05
2022-11-24T02:07:03.418Z,99648.41
2022-11-24T02:09:47.609Z,99650.59
2022-11-24T02:12:19.336Z,99650.47
2022-11-24T02:15:11.629Z,99647.54
2022-11-24T02:17:47.433Z,99651.77
2022-11-24T02:20:37.821Z,99652.80
2022-11-24T02:23:44.837Z,99654.74
2022-11-24T02:26:40.982Z,99659.67
2022-11-24T02:29:14.273Z,99658.20
2022-11-24T02:32:00.474Z,99654.27
2022-11-24T02:37:54.346Z,99635.11
2022-11-24T02:40:43.334Z,99650.98
2022-11-24T02:43:23.156Z,99647.73
2022-11-24T02:45:55.229Z,99644.04
2022-11-24T02:48:28.792Z,99641.59
2022-11-24T02:51:00.296Z,99643.45
2022-11-24T02:53:34.043Z,99634.46
2022-11-24T02:56:05.884Z,99632.52
2022-11-24T02:58:39.617Z,99641.09
2022-11-24T03:01:15.252Z,99645.90
2022-11-24T03:03:49.980Z,99647.14
2022-11-24T03:06:21.597Z,99645.66
2022-11-24T03:08:56.202Z,99640.95
2022-11-24T03:11:33.927Z,99647.02
2022-11-24T03:14:05.573Z,99641.03
2022-11-24T03:16:39.884Z,99638.57
2022-11-24T03:19:11.658Z,99645.43
2022-11-24T03:21:45.537Z,99649.90
2022-11-24T03:24:18.403Z,99642.73
2022-11-24T03:26:51.946Z,99647.70
2022-11-24T03:29:41.590Z,99646.03
2022-11-24T03:32:13.447Z,99649.56
2022-11-24T03:34:45.067Z,99661.61
2022-11-24T03:37:20.606Z,99668.38
2022-11-24T03:39:54.196Z,99666.08
2022-11-24T03:42:27.840Z,99671.07
2022-11-24T03:48:05.470Z,99675.85
2022-11-24T03:50:39.485Z,99676.06
2022-11-24T03:53:14.200Z,99676.20
2022-11-24T03:59:48.264Z,99672.34
2022-11-24T04:02:35.141Z,99666.05
2022-11-24T04:08:21.348Z,99669.31
2022-11-24T04:10:54.795Z,99671.86
2022-11-24T04:13:32.385Z,99666.70
2022-11-24T04:19:22.526Z,99671.81
2022-11-24T04:21:54.380Z,99672.35
2022-11-24T04:24:28.850Z,99663.73
2022-11-24T04:27:16.448Z,99663.19
2022-11-24T04:29:50.912Z,99656.73
2022-11-24T04:32:22.822Z,99663.27
2022-11-24T04:34:56.204Z,99663.66
2022-11-24T04:37:41.073Z,99666.68
2022-11-24T04:40:14.776Z,99671.79
2022-11-24T04:42:57.137Z,99677.61
2022-11-24T04:45:30.578Z,99688.55
2022-11-24T04:48:02.322Z,99686.46
2022-11-24T04:54:33.742Z,99692.91
2022-11-24T04:57:08.158Z,99693.89
2022-11-24T04:59:57.200Z,99700.73
2022-11-24T05:03:12.027Z,99701.06
2022-11-24T05:09:17.518Z,99713.29
2022-11-24T05:18:34.547Z,99719.70
2022-11-24T05:21:47.976Z,99720.34
2022-11-24T05:24:22.226Z,99723.65
2022-11-24T05:37:03.209Z,99714.19
2022-11-24T05:39:33.062Z,99717.12
2022-11-24T05:42:23.045Z,99713.99
2022-11-24T05:54:41.928Z,99727.77
2022-11-24T05:57:13.635Z,99732.27
2022-11-24T06:03:05.145Z,99739.28
2022-11-24T06:15:37.819Z,99742.44
2022-11-24T06:18:10.987Z,99746.20
2022-11-24T06:21:11.330Z,99747.77
2022-11-24T06:23:49.486Z,99750.11
2022-11-24T06:26:29.142Z,99745.77
2022-11-24T06:29:01.127Z,99751.65
2022-11-24T06:31:36.937Z,99754.04
2022-11-24T06:34:15.574Z,99755.67
2022-11-24T06:36:54.920Z,99760.92
2022-11-24T06:39:32.789Z,99763.02
2022-11-24T06:42:08.442Z,99763.67
2022-11-24T06:44:49.108Z,99764.12
2022-11-24T06:47:22.218Z,99768.95
2022-11-24T06:50:12.515Z,99767.73
2022-11-24T06:52:45.767Z,99768.41
2022-11-24T06:55:17.698Z,99770.40
2022-11-24T06:57:51.908Z,99777.61
2022-11-24T07:00:31.848Z,99778.85
2022-11-24T07:03:03.836Z,99777.17
2022-11-24T07:05:43.349Z,99774.50
2022-11-24T07:08:19.898Z,99773.08
2022-11-24T07:11:15.300Z,99782.35
2022-11-24T07:14:05.657Z,99781.31
2022-11-24T07:16:40.282Z,99782.67
2022-11-24T07:19:29.651Z,99785.73
2022-11-24T07:22:18.968Z,99792.66
2022-11-24T07:24:51.110Z,99795.11
2022-11-24T07:27:30.111Z,99798.34
2022-11-24T07:30:04.412Z,99803.63
2022-11-24T07:32:35.869Z,99801.92
2022-11-24T07:35:08.837Z,99809.86
2022-11-24T07:37:40.456Z,99817.42
2022-11-24T07:40:16.234Z,99815.96
2022-11-24T07:42:50.752Z,99820.78
2022-11-24T07:45:23.837Z,99812.31
2022-11-24T07:47:55.582Z,99807.63
2022-11-24T07:50:28.497Z,99804.67
2022-11-24T07:53:03.276Z,99805.96
2022-11-24T07:55:35.396Z,99809.11
2022-11-24T07:58:06.757Z,99811.98
2022-11-24T08:00:40.149Z,99813.80
2022-11-24T08:03:13.671Z,99813.67
2022-11-24T08:06:22.412Z,99812.62
2022-11-24T08:08:48.391Z,99816.34
2022-11-24T08:11:23.320Z,99810.39
2022-11-24T08:13:58.767Z,99808.90
2022-11-24T08:16:33.360Z,99806.27
2022-11-24T08:19:05.369Z,99810.27
2022-11-24T08:21:53.576Z,99807.58
2022-11-24T08:24:27.566Z,99809.40
2022-11-24T08:27:01.435Z,99814.77
2022-11-24T08:29:35.977Z,99815.15
2022-11-24T08:32:09.572Z,99817.27
2022-11-24T08:34:43.626Z,99813.89
2022-11-24T08:37:20.682Z,99817.42
2022-11-24T08:39:53.736Z,99818.27
2022-11-24T08:42:29.035Z,99821.96
2022-11-24T08:45:19.980Z,99818.04
2022-11-24T08:48:07.406Z,99818.93
2022-11-24T08:50:43.988Z,99819.64
2022-11-24T08:53:19.755Z,99824.01
2022-11-24T08:59:08.582Z,99825.54
2022-11-24T09:01:41.980Z,99825.95
2022-11-24T09:04:14.677Z,99823.71
2022-11-24T09:07:01.623Z,99819.27
2022-11-24T09:09:39.070Z,99821.89
2022-11-24T09:12:14.613Z,99820.31
2022-11-24T09:14:46.429Z,99821.95
2022-11-24T09:17:21.668Z,99826.59
2022-11-24T09:19:56.291Z,99826.38
2022-11-24T09:22:30.848Z,99824.92
2022-11-24T09:25:07.433Z,99816.57
2022-11-24T09:27:39.231Z,99812.71
2022-11-24T09:30:15.403Z,99805.64
2022-11-24T09:32:52.376Z,99810.04
2022-11-24T09:35:24.694Z,99814.66
2022-11-24T09:37:56.859Z,99821.56
2022-11-24T09:40:33.837Z,99822.21
2022-11-24T09:43:18.148Z,99822.81
2022-11-24T09:46:08.878Z,99822.30
2022-11-24T09:48:49.278Z,99822.35
2022-11-24T09:51:25.959Z,99820.29
2022-11-24T09:54:10.678Z,99821.71
2022-11-24T09:56:46.261Z,99823.79
2022-11-24T09:59:24.009Z,99825.83
2022-11-24T10:01:59.244Z,99829.91
2022-11-24T10:04:42.220Z,99828.17
2022-11-24T10:07:42.100Z,99828.79
2022-11-24T10:10:27.503Z,99826.23
2022-11-24T10:13:31.917Z,99828.43
2022-11-24T10:20:55.962Z,99825.10
2022-11-24T10:23:58.799Z,99828.86
2022-11-24T10:26:48.409Z,99832.23
2022-11-24T10:29:51.260Z,99835.95
2022-11-24T10:32:37.838Z,99837.21
2022-11-24T10:38:47.291Z,99830.47
2022-11-24T10:55:15.170Z,99852.48
2022-11-24T11:01:35.677Z,99843.80
2022-11-24T11:07:26.417Z,99845.58
2022-11-24T11:19:49.364Z,99844.29
2022-11-24T11:39:53.500Z,99841.83
2022-11-24T11:46:12.872Z,99835.59
2022-11-24T11:59:41.778Z,99841.20
2022-11-24T12:09:24.345Z,99850.00
2022-11-24T12:15:56.403Z,99852.95
2022-11-24T12:19:03.984Z,99855.13
2022-11-24T12:21:55.071Z,99857.73
2022-11-24T12:28:02.727Z,99851.70
2022-11-24T12:31:16.184Z,99849.98
2022-11-24T12:39:01.433Z,99855.58
2022-11-24T12:42:29.370Z,99855.58
2022-11-24T13:32:38.063Z,99855.59
2022-11-24T13:45:54.776Z,99856.27
2022-11-24T14:02:04.814Z,99866.29
2022-11-24T14:17:43.350Z,99862.73
2022-11-24T14:37:14.168Z,99892.68
2022-11-24T14:46:36.798Z,99894.02
2022-11-24T15:02:51.799Z,99903.48
2022-11-24T15:06:10.101Z,99904.20
2022-11-24T15:09:00.344Z,99907.72
2022-11-24T15:28:29.830Z,99933.83
2022-11-24T15:37:38.584Z,99931.71
2022-11-24T15:46:59.533Z,99933.79
2022-11-24T15:56:35.222Z,99925.45
2022-11-24T16:09:16.747Z,99931.52
2022-11-24T16:28:09.830Z,99951.44
2022-11-24T16:31:05.014Z,99953.23
2022-11-24T16:33:50.509Z,99958.53
2022-11-24T16:36:26.576Z,99959.54
2022-11-24T16:39:04.481Z,99963.27
2022-11-24T16:42:22.226Z,99967.49
2022-11-24T16:44:53.074Z,99975.63
2022-11-24T16:47:23.767Z,99972.52
2022-11-24T16:49:53.453Z,99977.89
2022-11-24T16:52:24.450Z,99972.48
2022-11-24T16:55:01.696Z,99970.77
2022-11-24T16:57:30.560Z,99978.10
2022-11-24T16:59:59.658Z,99978.62
2022-11-24T17:02:30.182Z,99972.77
2022-11-24T17:04:58.709Z,99976.23
2022-11-24T17:07:29.429Z,99971.89
2022-11-24T17:10:00.610Z,99981.61
2022-11-24T17:12:29.369Z,99983.73
2022-11-24T17:15:30.473Z,99978.18
2022-11-24T17:18:16.097Z,99985.50
2022-11-24T17:20:38.666Z,99986.86
2022-11-24T17:23:08.612Z,99992.38
2022-11-24T17:25:45.469Z,99991.63
2022-11-24T17:31:32.874Z,99999.58
2022-11-24T17:34:03.699Z,100001.77
2022-11-24T17:36:36.605Z,100003.83
2022-11-24T17:39:09.570Z,100004.84
2022-11-24T17:41:41.127Z,100004.22
2022-11-24T17:44:13.758Z,100008.60
2022-11-24T17:46:49.078Z,100005.67
2022-11-24T17:49:20.818Z,100006.46
2022-11-24T17:52:10.789Z,100007.32
2022-11-24T17:54:56.558Z,100009.45
2022-11-24T17:57:26.716Z,100012.38
2022-11-24T18:07:01.729Z,100008.41
2022-11-24T18:09:43.429Z,100010.55
2022-11-24T18:31:35.899Z,100012.54
2022-11-24T18:34:12.509Z,100014.19
2022-11-24T18:36:51.623Z,100017.15
2022-11-24T18:39:44.073Z,100020.10
2022-11-24T18:42:18.116Z,100025.86
2022-11-24T18:44:52.551Z,100026.78
2022-11-24T18:47:29.860Z,100031.45
2022-11-24T18:50:09.666Z,100033.98
2022-11-24T18:52:56.137Z,100037.16
2022-11-24T18:59:01.783Z,100039.84
2022-11-24T19:01:42.204Z,100045.46
2022-11-24T19:04:44.451Z,100052.24
2022-11-24T19:07:30.267Z,100058.06
2022-11-24T19:10:11.547Z,100054.11
2022-11-24T19:12:47.945Z,100059.94
2022-11-24T19:15:37.135Z,100059.88
2022-11-24T19:18:29.933Z,100064.64
2022-11-24T19:21:21.989Z,100071.57
2022-11-24T19:24:04.187Z,100068.96
2022-11-24T19:26:40.533Z,100072.84
2022-11-24T19:29:40.377Z,100068.59
2022-11-24T19:32:19.733Z,100070.71
2022-11-24T19:35:18.341Z,100069.90
2022-11-24T19:38:44.178Z,100070.52
2022-11-24T19:41:35.961Z,100062.58
2022-11-24T19:44:19.367Z,100055.16
2022-11-24T19:46:55.104Z,100053.20
2022-11-24T19:49:28.089Z,100051.17
2022-11-24T19:52:01.197Z,100047.27
2022-11-24T19:54:39.154Z,100052.16
2022-11-24T19:57:17.964Z,100047.44
2022-11-24T19:59:58.904Z,100045.56
2022-11-24T20:02:35.918Z,100047.09
2022-11-24T20:05:14.812Z,100050.59
2022-11-24T20:07:46.739Z,100055.27
2022-11-24T20:10:33.487Z,100061.00
2022-11-24T20:13:12.303Z,100060.57
2022-11-24T20:15:59.720Z,100059.02
2022-11-24T20:18:40.405Z,100062.67
2022-11-24T20:21:20.290Z,100068.28
2022-11-24T20:24:02.726Z,100072.30
2022-11-24T20:26:42.122Z,100073.99
2022-11-24T20:29:16.318Z,100072.79
2022-11-24T20:31:53.304Z,100074.46
2022-11-24T20:34:29.092Z,100077.24
2022-11-24T20:37:13.868Z,100084.46
2022-11-24T20:39:48.179Z,100086.30
2022-11-24T20:42:23.940Z,100082.58
2022-11-24T20:45:00.778Z,100085.35
2022-11-24T20:47:36.999Z,100091.70
2022-11-24T20:50:39.199Z,100098.02
2022-11-24T20:53:29.184Z,100096.31
2022-11-24T20:56:17.039Z,100097.77
2022-11-24T20:58:54.080Z,100100.34
2022-11-24T21:01:31.277Z,100106.38
2022-11-24T21:04:15.042Z,100111.42
2022-11-24T21:06:52.764Z,100118.05
2022-11-24T21:09:36.436Z,100119.79
2022-11-24T21:12:13.102Z,100127.67
2022-11-24T21:14:50.396Z,100125.86
2022-11-24T21:17:24.360Z,100123.91
2022-11-24T21:30:15.491Z,100127.98
2022-11-24T21:33:11.613Z,100130.31
2022-11-24T21:35:55.640Z,100137.11
2022-11-24T21:38:33.901Z,100137.01
2022-11-24T21:41:16.492Z,100136.64
2022-11-24T21:44:14.033Z,100138.05
2022-11-24T21:50:24.081Z,100144.86
2022-11-24T21:53:06.449Z,100142.73
2022-11-24T21:55:42.370Z,100147.64
2022-11-24T21:58:25.102Z,100150.39
2022-11-24T22:04:32.196Z,100150.80
2022-11-24T22:07:13.089Z,100151.98
2022-11-24T22:09:46.470Z,100149.96
2022-11-24T22:12:20.390Z,100147.64
2022-11-24T22:14:54.029Z,100144.63
2022-11-24T22:17:35.103Z,100140.81
2022-11-24T22:20:22.910Z,100142.91
2022-11-24T22:23:03.060Z,100139.07
2022-11-24T22:25:37.973Z,100142.77
2022-11-24T22:28:29.859Z,100144.15
2022-11-24T22:31:34.664Z,100142.60
2022-11-24T22:37:52.454Z,100143.10
2022-11-24T22:40:38.347Z,100140.42
2022-11-24T22:43:56.219Z,100140.20
2022-11-24T22:46:39.809Z,100137.96
2022-11-24T22:49:44.727Z,100140.48
2022-11-24T22:52:17.818Z,100145.46
2022-11-24T22:54:57.870Z,100146.11
2022-11-24T22:58:11.210Z,100144.64
2022-11-24T23:00:46.070Z,100147.77
2022-11-24T23:03:25.857Z,100146.05
2022-11-24T23:06:03.750Z,100150.32
2022-11-24T23:08:38.363Z,100151.77
2022-11-24T23:11:20.075Z,100149.41
2022-11-24T23:13:56.736Z,100148.77
2022-11-24T23:16:32.538Z,100148.20
2022-11-24T23:19:11.277Z,100149.77
2022-11-24T23:21:47.889Z,100143.70
2022-11-24T23:24:22.899Z,100144.57
2022-11-24T23:26:52.978Z,100141.30
2022-11-24T23:29:32.759Z,100140.81
2022-11-24T23:32:06.389Z,100139.70
2022-11-24T23:34:39.039Z,100139.42
2022-11-24T23:37:17.889Z,100138.23
2022-11-24T23:39:59.409Z,100139.55
2022-11-24T23:42:32.980Z,100137.33
2022-11-24T23:45:02.367Z,100134.02
2022-11-24T23:47:36.280Z,100133.06
2022-11-24T23:50:11.908Z,100136.73
2022-11-24T23:52:49.840Z,100131.14
2022-11-24T23:55:24.049Z,100131.67
2022-11-24T23:57:58.227Z,100131.27
